^^
Meteo Knjazevac Station Historical Data
Daily Summary for May 18, 2022 Units:  English    Metric   Both
Daily Weekly Monthly Yearly Custom
  High: Low: Average:
Temperature: 75.6 °F 44.8 °F 63.7 °F
Dew Point: 59.7 °F 40.8 °F 52.9 °F
Humidity: 90% 34% 70%
Wind Speed: 10mph 0mph 4mph
Wind Gust: 21mph - -
Wind- - WNW
Pressure: 30.35 in 30.03 in -
Precipitation: 0.00 in    
Historical Graphs
 
 
Tabular Data for May 18, 2022
Time Temperature Dew Point Pressure Wind Wind Speed Wind Gust Humidity Rainfall Rate (Hourly) solar Conditions
00:00 64.9 °F 56.8 °F 30.05 in SW 5 mph 9 mph 75% 0.00 in 0 W/m2
00:10 64.8 °F 56.6 °F 30.04 in WSW 2 mph 9 mph 75% 0.00 in 0 W/m2
00:20 64.6 °F 56.8 °F 30.04 in SW 3 mph 6 mph 76% 0.00 in 0 W/m2
00:30 64.1 °F 57.1 °F 30.04 in SW 6 mph 11 mph 78% 0.00 in 0 W/m2
00:40 63.7 °F 57.4 °F 30.04 in SW 8 mph 12 mph 80% 0.00 in 0 W/m2
00:50 63.5 °F 57.2 °F 30.05 in SW 5 mph 9 mph 80% 0.00 in 0 W/m2
01:00 63.3 °F 57.4 °F 30.05 in SSW 3 mph 9 mph 81% 0.00 in 0 W/m2
01:10 63.1 °F 56.9 °F 30.05 in SW 2 mph 5 mph 80% 0.00 in 0 W/m2
01:20 63.1 °F 56.9 °F 30.05 in SSW 2 mph 5 mph 80% 0.00 in 0 W/m2
01:30 63.1 °F 56.9 °F 30.05 in SW 2 mph 5 mph 80% 0.00 in 0 W/m2
01:40 63 °F 57.1 °F 30.04 in SW 6 mph 9 mph 81% 0.00 in 0 W/m2
01:50 62.8 °F 56.9 °F 30.04 in SW 5 mph 10 mph 81% 0.00 in 0 W/m2
02:00 62.8 °F 57.5 °F 30.04 in SW 5 mph 8 mph 83% 0.00 in 0 W/m2
02:10 62.8 °F 57.5 °F 30.04 in SW 5 mph 8 mph 83% 0.00 in 0 W/m2
02:20 62.8 °F 57.5 °F 30.04 in SW 3 mph 8 mph 83% 0.00 in 0 W/m2
02:30 62.8 °F 57.5 °F 30.04 in SW 1 mph 5 mph 83% 0.00 in 0 W/m2
02:40 63 °F 57.7 °F 30.04 in Calm   2 mph 83% 0.00 in 0 W/m2
02:50 63 °F 57.7 °F 30.03 in SW 3 mph 6 mph 83% 0.00 in 0 W/m2
03:00 63 °F 57.8 °F 30.03 in SW 5 mph 6 mph 83% 0.00 in 0 W/m2
03:10 63 °F 57.7 °F 30.04 in SW 5 mph 7 mph 83% 0.00 in 0 W/m2
03:20 63 °F 58 °F 30.04 in SW 5 mph 7 mph 84% 0.00 in 0 W/m2
03:30 63 °F 58 °F 30.04 in SW 2 mph 6 mph 84% 0.00 in 0 W/m2
03:40 63 °F 58 °F 30.04 in SW 3 mph 8 mph 84% 0.00 in 0 W/m2
03:50 63 °F 58 °F 30.03 in SW 5 mph 9 mph 84% 0.00 in 0 W/m2
04:00 63 °F 58.4 °F 30.03 in SW 5 mph 10 mph 85% 0.00 in 0 W/m2
04:10 63 °F 58.4 °F 30.03 in SW 6 mph 8 mph 85% 0.00 in 0 W/m2
04:20 63 °F 58.4 °F 30.03 in WSW 5 mph 7 mph 85% 0.00 in 0 W/m2
04:30 62.8 °F 58.3 °F 30.03 in SW 7 mph 9 mph 85% 0.00 in 0 W/m2
04:40 63 °F 58.4 °F 30.03 in SW 6 mph 10 mph 85% 0.00 in 0 W/m2
05:00 63 °F 58.4 °F 30.04 in SW 5 mph 6 mph 85% 0.00 in 0 W/m2
05:10 63 °F 59.3 °F 30.04 in WSW 3 mph 6 mph 88% 0.01 in 0 W/m2
05:20 62.8 °F 59.5 °F 30.04 in SW 3 mph 7 mph 89% 0.00 in 0 W/m2
05:30 62.6 °F 59.3 °F 30.04 in SW 3 mph 6 mph 89% 0.00 in 3 W/m2
05:40 62.4 °F 59.1 °F 30.04 in SW 5 mph 7 mph 89% 0.00 in 8 W/m2
05:50 62.4 °F 59.4 °F 30.04 in WSW 3 mph 7 mph 90% 0.00 in 14 W/m2
06:00 62.4 °F 59.4 °F 30.05 in Calm   5 mph 90% 0.00 in 10 W/m2
06:10 62.4 °F 59.4 °F 30.05 in West 1 mph 3 mph 90% 0.00 in 8 W/m2
06:20 62.4 °F 59.4 °F 30.05 in WSW 2 mph 6 mph 90% 0.00 in 10 W/m2
06:30 62.6 °F 59.3 °F 30.06 in WSW 1 mph 6 mph 89% 0.00 in 11 W/m2
06:40 62.7 °F 59.4 °F 30.06 in West 1 mph 4 mph 89% 0.00 in 13 W/m2
06:50 62.8 °F 59.2 °F 30.06 in Calm   4 mph 88% 0.00 in 18 W/m2
07:00 63 °F 59.7 °F 30.06 in WSW 2 mph 6 mph 89% 0.00 in 27 W/m2
07:10 63.1 °F 59.5 °F 30.06 in NW 1 mph 5 mph 88% 0.00 in 49 W/m2
07:20 63.3 °F 59.1 °F 30.06 in NW 1 mph 3 mph 86% 0.00 in 60 W/m2
07:30 63.5 °F 59.2 °F 30.06 in West 2 mph 6 mph 86% 0.00 in 54 W/m2
07:40 63.7 °F 59.4 °F 30.06 in WSW 2 mph 7 mph 86% 0.00 in 86 W/m2
07:50 63.9 °F 59.6 °F 30.06 in WSW 5 mph 8 mph 86% 0.00 in 109 W/m2
08:00 63.9 °F 59.3 °F 30.07 in West 3 mph 12 mph 85% 0.00 in 126 W/m2
08:10 64.2 °F 59.2 °F 30.08 in WNW 5 mph 7 mph 84% 0.00 in 116 W/m2
08:20 64.4 °F 59.1 °F 30.08 in West 5 mph 10 mph 83% 0.00 in 428 W/m2
08:30 65.4 °F 59.1 °F 30.08 in West 7 mph 14 mph 80% 0.00 in 493 W/m2
08:40 66.3 °F 59.6 °F 30.09 in WNW 5 mph 14 mph 79% 0.00 in 242 W/m2
08:50 66.2 °F 59.1 °F 30.09 in West 5 mph 11 mph 78% 0.00 in 247 W/m2
09:00 66.2 °F 58.8 °F 30.09 in West 8 mph 13 mph 77% 0.00 in 384 W/m2
09:20 67.2 °F 58.6 °F 30.10 in West 7 mph 12 mph 74% 0.00 in 373 W/m2
09:30 67.3 °F 57.9 °F 30.10 in West 6 mph 11 mph 72% 0.00 in 355 W/m2
09:40 67.5 °F 57.3 °F 30.10 in NW 3 mph 12 mph 70% 0.00 in 204 W/m2
09:50 67.8 °F 58.5 °F 30.11 in NW 3 mph 8 mph 72% 0.00 in 773 W/m2
10:00 69.6 °F 59 °F 30.11 in NW 2 mph 9 mph 69% 0.00 in 295 W/m2
10:10 70 °F 58.5 °F 30.12 in NNW 7 mph 14 mph 67% 0.00 in 210 W/m2
10:20 69.3 °F 56.2 °F 30.12 in NNW 8 mph 15 mph 63% 0.00 in 183 W/m2
10:30 68.7 °F 56 °F 30.12 in NNW 6 mph 15 mph 64% 0.00 in 191 W/m2
10:40 68.4 °F 55.3 °F 30.12 in NNW 6 mph 12 mph 63% 0.00 in 218 W/m2
10:50 69 °F 55.5 °F 30.12 in NW 6 mph 17 mph 62% 0.00 in 882 W/m2
11:00 69.4 °F 54.5 °F 30.13 in NNW 8 mph 17 mph 59% 0.00 in 252 W/m2
11:10 69.1 °F 54.6 °F 30.13 in NNW 6 mph 17 mph 60% 0.00 in 277 W/m2
11:20 69.1 °F 54.1 °F 30.13 in NNW 8 mph 14 mph 59% 0.00 in 267 W/m2
11:30 69.2 °F 52.4 °F 30.13 in NNW 7 mph 18 mph 55% 0.00 in 644 W/m2
11:40 70.3 °F 53.4 °F 30.13 in NNW 5 mph 17 mph 55% 0.00 in 353 W/m2
11:50 70.5 °F 54.5 °F 30.14 in North 8 mph 17 mph 57% 0.00 in 250 W/m2
12:00 70.3 °F 53.4 °F 30.13 in NNW 7 mph 18 mph 55% 0.00 in 685 W/m2
12:10 71.4 °F 53.9 °F 30.13 in North 7 mph 13 mph 54% 0.00 in 319 W/m2
12:20 71.1 °F 53.6 °F 30.14 in North 5 mph 16 mph 54% 0.00 in 907 W/m2
12:30 71.6 °F 53.5 °F 30.14 in NNW 8 mph 19 mph 53% 0.00 in 341 W/m2
12:40 70.9 °F 52.4 °F 30.14 in NNW 6 mph 19 mph 52% 0.00 in 358 W/m2
12:50 71.8 °F 53.2 °F 30.14 in NNW 9 mph 21 mph 52% 0.00 in 693 W/m2
13:00 71.6 °F 51.4 °F 30.14 in NNW 10 mph 20 mph 49% 0.00 in 282 W/m2
13:10 72.5 °F 52.8 °F 30.14 in NW 9 mph 16 mph 50% 0.00 in 936 W/m2
13:20 73 °F 53.3 °F 30.13 in NW 7 mph 16 mph 50% 0.00 in 928 W/m2
13:40 74.3 °F 52.7 °F 30.13 in NW 8 mph 14 mph 47% 0.00 in 908 W/m2
13:50 74.6 °F 50.7 °F 30.13 in WNW 10 mph 18 mph 43% 0.00 in 896 W/m2
14:00 74.7 °F 50.7 °F 30.13 in NW 6 mph 14 mph 43% 0.00 in 538 W/m2
14:10 74.1 °F 50.2 °F 30.13 in North 5 mph 13 mph 43% 0.00 in 245 W/m2
14:20 74.1 °F 49.6 °F 30.13 in NW 3 mph 14 mph 42% 0.00 in 851 W/m2
14:30 74.8 °F 50.2 °F 30.13 in North 6 mph 13 mph 42% 0.00 in 834 W/m2
14:40 75.6 °F 50.9 °F 30.13 in North 7 mph 19 mph 42% 0.00 in 815 W/m2
14:50 74.8 °F 48.2 °F 30.14 in NNW 8 mph 17 mph 39% 0.00 in 794 W/m2
15:10 75 °F 47 °F 30.14 in NNW 6 mph 17 mph 37% 0.00 in 751 W/m2
15:20 74.8 °F 46.8 °F 30.14 in North 9 mph 20 mph 37% 0.00 in 370 W/m2
15:30 74.8 °F 45.3 °F 30.15 in North 7 mph 20 mph 35% 0.00 in 702 W/m2
15:40 74.7 °F 44.4 °F 30.15 in NNW 6 mph 13 mph 34% 0.00 in 677 W/m2
15:50 74.7 °F 45.2 °F 30.15 in North 6 mph 16 mph 35% 0.00 in 646 W/m2
16:00 74.5 °F 45 °F 30.15 in North 5 mph 14 mph 35% 0.00 in 623 W/m2
16:10 74.1 °F 43.9 °F 30.15 in North 6 mph 16 mph 34% 0.00 in 595 W/m2
16:20 74.1 °F 44.7 °F 30.16 in North 5 mph 14 mph 35% 0.00 in 566 W/m2
16:30 73.9 °F 44.5 °F 30.17 in North 5 mph 14 mph 35% 0.00 in 537 W/m2
16:40 73.9 °F 43.8 °F 30.17 in NNW 8 mph 17 mph 34% 0.00 in 507 W/m2
16:50 72.7 °F 43.5 °F 30.17 in North 6 mph 15 mph 35% 0.00 in 198 W/m2
17:00 71.6 °F 51.4 °F 30.17 in North 5 mph 12 mph 49% 0.00 in 159 W/m2
17:10 70.4 °F 53.4 °F 30.19 in North 3 mph 13 mph 55% 0.00 in 149 W/m2
17:20 68.7 °F 53.4 °F 30.20 in NNW 7 mph 16 mph 58% 0.00 in 136 W/m2
17:30 66.4 °F 50.7 °F 30.22 in NW 6 mph 17 mph 57% 0.00 in 60 W/m2
17:40 64.6 °F 49.5 °F 30.23 in NNW 6 mph 14 mph 58% 0.00 in 37 W/m2
17:50 63.7 °F 49.5 °F 30.23 in North 5 mph 10 mph 60% 0.00 in 46 W/m2
18:00 63 °F 50.6 °F 30.23 in North 2 mph 10 mph 64% 0.00 in 33 W/m2
18:10 62.1 °F 49.7 °F 30.23 in North 1 mph 5 mph 64% 0.00 in 27 W/m2
18:20 61.3 °F 50.3 °F 30.23 in NNW 3 mph 6 mph 67% 0.00 in 60 W/m2
18:30 60.6 °F 51.6 °F 30.24 in NW 2 mph 6 mph 72% 0.00 in 144 W/m2
18:40 60.4 °F 50.6 °F 30.25 in NW 2 mph 7 mph 70% 0.00 in 114 W/m2
18:50 60.4 °F 50.6 °F 30.25 in West 3 mph 6 mph 70% 0.00 in 63 W/m2
19:00 60.4 °F 50.2 °F 30.25 in WNW 1 mph 5 mph 69% 0.00 in 68 W/m2
19:10 60.4 °F 50.2 °F 30.25 in NW 2 mph 5 mph 69% 0.00 in 38 W/m2
19:20 60.4 °F 50.2 °F 30.26 in Calm   2 mph 69% 0.00 in 31 W/m2
19:30 59.7 °F 49.5 °F 30.26 in Calm   2 mph 69% 0.00 in 18 W/m2
19:40 59 °F 49.2 °F 30.27 in Calm   3 mph 70% 0.00 in 11 W/m2
19:50 58.1 °F 49.1 °F 30.27 in Calm   2 mph 72% 0.00 in 5 W/m2
20:00 57.4 °F 48.8 °F 30.28 in Calm   2 mph 73% 0.00 in 0 W/m2
20:10 56.7 °F 48.5 °F 30.28 in NNW 1 mph 2 mph 74% 0.00 in 0 W/m2
20:20 55.9 °F 48.1 °F 30.28 in North 2 mph 4 mph 75% 0.00 in 0 W/m2
20:30 55.4 °F 48.3 °F 30.29 in Calm   4 mph 77% 0.00 in 0 W/m2
20:40 54.5 °F 47.8 °F 30.29 in West 1 mph 3 mph 78% 0.00 in 0 W/m2
20:50 53.6 °F 46.9 °F 30.30 in West 2 mph 3 mph 78% 0.00 in 0 W/m2
21:00 52.7 °F 46.4 °F 30.30 in West 2 mph 6 mph 79% 0.00 in 0 W/m2
21:10 51.8 °F 45.8 °F 30.31 in West 2 mph 4 mph 80% 0.00 in 0 W/m2
21:20 51.3 °F 45.6 °F 30.31 in WSW 2 mph 4 mph 81% 0.00 in 0 W/m2
21:30 50.7 °F 45.1 °F 30.32 in West 1 mph 4 mph 81% 0.00 in 0 W/m2
21:40 50.2 °F 45.2 °F 30.32 in West 2 mph 3 mph 83% 0.00 in 0 W/m2
21:50 49.8 °F 44.9 °F 30.32 in WNW 1 mph 3 mph 83% 0.00 in 0 W/m2
22:00 49.5 °F 44.5 °F 30.32 in WSW 1 mph 3 mph 83% 0.00 in 0 W/m2
22:10 49.1 °F 44.2 °F 30.32 in Calm   2 mph 83% 0.00 in 0 W/m2
22:20 48.7 °F 43.8 °F 30.33 in WNW 1 mph 2 mph 83% 0.00 in 0 W/m2
22:30 48.4 °F 43.4 °F 30.33 in Calm   2 mph 83% 0.00 in 0 W/m2
22:40 47.8 °F 43.2 °F 30.33 in Calm   2 mph 84% 0.00 in 0 W/m2
22:50 47.5 °F 42.9 °F 30.34 in WNW 1 mph 2 mph 84% 0.00 in 0 W/m2
23:00 46.8 °F 42.2 °F 30.34 in West 2 mph 3 mph 84% 0.00 in 0 W/m2
23:10 46.2 °F 41.7 °F 30.34 in West 1 mph 3 mph 84% 0.00 in 0 W/m2
23:20 45.7 °F 41.4 °F 30.34 in WSW 1 mph 3 mph 85% 0.00 in 0 W/m2
23:30 45.3 °F 41.1 °F 30.34 in West 1 mph 2 mph 85% 0.00 in 0 W/m2
23:40 45 °F 41 °F 30.34 in NW 1 mph 3 mph 86% 0.00 in 0 W/m2
23:50 44.8 °F 40.8 °F 30.35 in Calm   2 mph 86% 0.00 in 0 W/m2
Knjazevac, Serbia
Compliments of Weather Underground - 2 mb